sensor_id;sensor_type;location;lat;lon;timestamp;P1;durP1;ratioP1;P2;durP2;ratioP2
44272;SDS011;29964;17.182;-96.766;2022-10-17T00:01:24;1.30;;;0.93;;
44272;SDS011;29964;17.182;-96.766;2022-10-17T00:03:50;1.98;;;1.40;;
44272;SDS011;29964;17.182;-96.766;2022-10-17T00:06:17;11.15;;;1.60;;
44272;SDS011;29964;17.182;-96.766;2022-10-17T00:08:44;0.80;;;0.73;;
44272;SDS011;29964;17.182;-96.766;2022-10-17T00:11:15;0.85;;;0.65;;
44272;SDS011;29964;17.182;-96.766;2022-10-17T00:13:42;4.90;;;1.45;;
44272;SDS011;29964;17.182;-96.766;2022-10-17T00:16:09;4.10;;;0.93;;
44272;SDS011;29964;17.182;-96.766;2022-10-17T00:18:35;1.03;;;0.67;;
44272;SDS011;29964;17.182;-96.766;2022-10-17T00:21:02;1.45;;;0.95;;
44272;SDS011;29964;17.182;-96.766;2022-10-17T00:23:29;2.85;;;1.25;;
44272;SDS011;29964;17.182;-96.766;2022-10-17T00:26:03;1.55;;;0.98;;
44272;SDS011;29964;17.182;-96.766;2022-10-17T00:28:30;2.70;;;1.23;;
44272;SDS011;29964;17.182;-96.766;2022-10-17T00:30:58;2.08;;;1.42;;
44272;SDS011;29964;17.182;-96.766;2022-10-17T00:33:25;1.37;;;1.00;;
44272;SDS011;29964;17.182;-96.766;2022-10-17T00:36:01;2.57;;;1.50;;
44272;SDS011;29964;17.182;-96.766;2022-10-17T00:38:28;1.20;;;0.90;;
44272;SDS011;29964;17.182;-96.766;2022-10-17T00:40:55;0.50;;;0.40;;
44272;SDS011;29964;17.182;-96.766;2022-10-17T00:43:22;1.50;;;0.80;;
44272;SDS011;29964;17.182;-96.766;2022-10-17T00:45:49;1.20;;;0.83;;
44272;SDS011;29964;17.182;-96.766;2022-10-17T00:48:16;2.10;;;1.10;;
44272;SDS011;29964;17.182;-96.766;2022-10-17T00:50:43;1.83;;;1.23;;
44272;SDS011;29964;17.182;-96.766;2022-10-17T00:53:11;1.57;;;1.07;;
44272;SDS011;29964;17.182;-96.766;2022-10-17T00:55:44;2.10;;;1.10;;
44272;SDS011;29964;17.182;-96.766;2022-10-17T00:58:13;1.50;;;1.00;;
44272;SDS011;29964;17.182;-96.766;2022-10-17T01:00:41;1.00;;;0.77;;
44272;SDS011;29964;17.182;-96.766;2022-10-17T01:03:08;2.53;;;1.27;;
44272;SDS011;29964;17.182;-96.766;2022-10-17T01:05:35;1.77;;;1.07;;
44272;SDS011;29964;17.182;-96.766;2022-10-17T01:08:02;3.47;;;1.67;;
44272;SDS011;29964;17.182;-96.766;2022-10-17T01:10:30;3.70;;;1.50;;
44272;SDS011;29964;17.182;-96.766;2022-10-17T01:13:10;2.23;;;0.80;;
44272;SDS011;29964;17.182;-96.766;2022-10-17T01:18:21;1.47;;;1.00;;
44272;SDS011;29964;17.182;-96.766;2022-10-17T01:26:16;9.67;;;1.20;;
44272;SDS011;29964;17.182;-96.766;2022-10-17T01:31:30;2.57;;;1.20;;
44272;SDS011;29964;17.182;-96.766;2022-10-17T01:33:59;0.70;;;0.70;;
44272;SDS011;29964;17.182;-96.766;2022-10-17T01:44:08;2.30;;;1.53;;
44272;SDS011;29964;17.182;-96.766;2022-10-17T01:46:37;8.83;;;1.23;;
44272;SDS011;29964;17.182;-96.766;2022-10-17T01:49:04;1.23;;;0.87;;
44272;SDS011;29964;17.182;-96.766;2022-10-17T01:54:00;1.23;;;0.60;;
44272;SDS011;29964;17.182;-96.766;2022-10-17T01:56:29;1.17;;;0.80;;
44272;SDS011;29964;17.182;-96.766;2022-10-17T01:58:57;2.03;;;1.37;;
44272;SDS011;29964;17.182;-96.766;2022-10-17T02:01:26;8.97;;;1.87;;
44272;SDS011;29964;17.182;-96.766;2022-10-17T02:03:55;3.00;;;1.40;;
44272;SDS011;29964;17.182;-96.766;2022-10-17T02:06:22;11.77;;;1.17;;
44272;SDS011;29964;17.182;-96.766;2022-10-17T02:08:49;3.07;;;1.20;;
44272;SDS011;29964;17.182;-96.766;2022-10-17T02:11:23;7.67;;;1.10;;
44272;SDS011;29964;17.182;-96.766;2022-10-17T02:18:57;1.67;;;1.17;;
44272;SDS011;29964;17.182;-96.766;2022-10-17T02:26:34;3.37;;;1.73;;
44272;SDS011;29964;17.182;-96.766;2022-10-17T02:29:17;3.00;;;1.30;;
44272;SDS011;29964;17.182;-96.766;2022-10-17T02:31:57;1.10;;;0.80;;
44272;SDS011;29964;17.182;-96.766;2022-10-17T02:34:28;1.03;;;0.87;;
44272;SDS011;29964;17.182;-96.766;2022-10-17T02:37:00;2.23;;;1.43;;
44272;SDS011;29964;17.182;-96.766;2022-10-17T02:39:27;1.63;;;1.20;;
44272;SDS011;29964;17.182;-96.766;2022-10-17T02:41:55;8.10;;;1.67;;
44272;SDS011;29964;17.182;-96.766;2022-10-17T02:44:23;2.53;;;1.40;;
44272;SDS011;29964;17.182;-96.766;2022-10-17T02:46:51;6.87;;;1.67;;
44272;SDS011;29964;17.182;-96.766;2022-10-17T02:49:22;2.07;;;1.07;;
44272;SDS011;29964;17.182;-96.766;2022-10-17T02:54:21;0.50;;;0.50;;
44272;SDS011;29964;17.182;-96.766;2022-10-17T02:56:52;2.23;;;1.50;;
44272;SDS011;29964;17.182;-96.766;2022-10-17T02:59:20;1.27;;;0.90;;
44272;SDS011;29964;17.182;-96.766;2022-10-17T03:01:48;1.07;;;0.90;;
44272;SDS011;29964;17.182;-96.766;2022-10-17T03:04:16;1.37;;;1.00;;
44272;SDS011;29964;17.182;-96.766;2022-10-17T03:06:43;1.90;;;1.23;;
44272;SDS011;29964;17.182;-96.766;2022-10-17T03:09:10;1.80;;;0.93;;
44272;SDS011;29964;17.182;-96.766;2022-10-17T03:11:37;1.37;;;0.90;;
44272;SDS011;29964;17.182;-96.766;2022-10-17T03:14:04;2.20;;;1.33;;
44272;SDS011;29964;17.182;-96.766;2022-10-17T03:16:31;1.40;;;1.10;;
44272;SDS011;29964;17.182;-96.766;2022-10-17T03:18:57;1.40;;;1.07;;
44272;SDS011;29964;17.182;-96.766;2022-10-17T03:21:24;4.67;;;1.60;;
44272;SDS011;29964;17.182;-96.766;2022-10-17T03:23:51;1.10;;;1.00;;
44272;SDS011;29964;17.182;-96.766;2022-10-17T03:26:17;3.10;;;2.00;;
44272;SDS011;29964;17.182;-96.766;2022-10-17T03:28:44;3.87;;;2.07;;
44272;SDS011;29964;17.182;-96.766;2022-10-17T03:31:14;2.10;;;1.57;;
44272;SDS011;29964;17.182;-96.766;2022-10-17T03:33:41;2.27;;;1.30;;
44272;SDS011;29964;17.182;-96.766;2022-10-17T03:36:09;27.00;;;1.30;;
44272;SDS011;29964;17.182;-96.766;2022-10-17T03:38:36;2.43;;;1.37;;
44272;SDS011;29964;17.182;-96.766;2022-10-17T03:41:03;2.20;;;1.57;;
44272;SDS011;29964;17.182;-96.766;2022-10-17T03:43:30;3.27;;;1.60;;
44272;SDS011;29964;17.182;-96.766;2022-10-17T03:45:57;2.80;;;1.67;;
44272;SDS011;29964;17.182;-96.766;2022-10-17T03:48:24;1.73;;;1.33;;
44272;SDS011;29964;17.182;-96.766;2022-10-17T03:50:51;2.33;;;1.20;;
44272;SDS011;29964;17.182;-96.766;2022-10-17T03:53:18;6.07;;;2.10;;
44272;SDS011;29964;17.182;-96.766;2022-10-17T03:55:45;2.67;;;1.80;;
44272;SDS011;29964;17.182;-96.766;2022-10-17T03:58:11;2.27;;;1.53;;
44272;SDS011;29964;17.182;-96.766;2022-10-17T04:00:39;2.57;;;1.33;;
44272;SDS011;29964;17.182;-96.766;2022-10-17T04:03:05;4.57;;;1.63;;
44272;SDS011;29964;17.182;-96.766;2022-10-17T04:05:32;1.90;;;1.10;;
44272;SDS011;29964;17.182;-96.766;2022-10-17T04:07:59;3.03;;;1.20;;
44272;SDS011;29964;17.182;-96.766;2022-10-17T04:10:25;1.40;;;0.93;;
44272;SDS011;29964;17.182;-96.766;2022-10-17T04:12:52;1.97;;;1.40;;
44272;SDS011;29964;17.182;-96.766;2022-10-17T04:15:19;2.93;;;1.63;;
44272;SDS011;29964;17.182;-96.766;2022-10-17T04:17:45;3.97;;;2.00;;
44272;SDS011;29964;17.182;-96.766;2022-10-17T04:20:12;1.63;;;1.13;;
44272;SDS011;29964;17.182;-96.766;2022-10-17T04:22:39;1.80;;;1.20;;
44272;SDS011;29964;17.182;-96.766;2022-10-17T04:25:05;2.03;;;1.03;;
44272;SDS011;29964;17.182;-96.766;2022-10-17T04:27:32;1.80;;;1.37;;
44272;SDS011;29964;17.182;-96.766;2022-10-17T04:29:59;20.47;;;2.30;;
44272;SDS011;29964;17.182;-96.766;2022-10-17T04:32:26;1.23;;;1.00;;
44272;SDS011;29964;17.182;-96.766;2022-10-17T04:34:52;0.83;;;0.70;;
44272;SDS011;29964;17.182;-96.766;2022-10-17T04:37:20;2.00;;;1.23;;
44272;SDS011;29964;17.182;-96.766;2022-10-17T04:39:47;2.33;;;1.50;;
44272;SDS011;29964;17.182;-96.766;2022-10-17T04:42:13;3.10;;;1.40;;
44272;SDS011;29964;17.182;-96.766;2022-10-17T04:44:40;1.70;;;1.27;;
44272;SDS011;29964;17.182;-96.766;2022-10-17T04:47:07;2.07;;;1.60;;
44272;SDS011;29964;17.182;-96.766;2022-10-17T04:49:33;2.33;;;1.47;;
44272;SDS011;29964;17.182;-96.766;2022-10-17T04:52:00;3.13;;;1.50;;
44272;SDS011;29964;17.182;-96.766;2022-10-17T04:54:27;6.63;;;1.23;;
44272;SDS011;29964;17.182;-96.766;2022-10-17T04:56:53;3.13;;;1.73;;
44272;SDS011;29964;17.182;-96.766;2022-10-17T04:59:20;1.93;;;1.60;;
44272;SDS011;29964;17.182;-96.766;2022-10-17T05:01:47;3.83;;;1.20;;
44272;SDS011;29964;17.182;-96.766;2022-10-17T05:04:14;2.23;;;1.23;;
44272;SDS011;29964;17.182;-96.766;2022-10-17T05:06:41;4.23;;;1.50;;
44272;SDS011;29964;17.182;-96.766;2022-10-17T05:09:07;1.20;;;0.93;;
44272;SDS011;29964;17.182;-96.766;2022-10-17T05:11:34;1.50;;;1.00;;
44272;SDS011;29964;17.182;-96.766;2022-10-17T05:14:01;2.00;;;1.40;;
44272;SDS011;29964;17.182;-96.766;2022-10-17T05:16:28;2.47;;;1.87;;
44272;SDS011;29964;17.182;-96.766;2022-10-17T05:18:56;3.00;;;1.70;;
44272;SDS011;29964;17.182;-96.766;2022-10-17T05:21:23;2.60;;;1.80;;
44272;SDS011;29964;17.182;-96.766;2022-10-17T05:23:50;1.43;;;1.33;;
44272;SDS011;29964;17.182;-96.766;2022-10-17T05:26:17;2.37;;;1.60;;
44272;SDS011;29964;17.182;-96.766;2022-10-17T05:28:44;1.43;;;1.10;;
44272;SDS011;29964;17.182;-96.766;2022-10-17T05:31:10;2.37;;;1.30;;
44272;SDS011;29964;17.182;-96.766;2022-10-17T05:33:37;1.93;;;1.53;;
44272;SDS011;29964;17.182;-96.766;2022-10-17T05:36:04;4.50;;;2.00;;
44272;SDS011;29964;17.182;-96.766;2022-10-17T05:38:31;1.77;;;1.30;;
44272;SDS011;29964;17.182;-96.766;2022-10-17T05:40:58;2.33;;;1.33;;
44272;SDS011;29964;17.182;-96.766;2022-10-17T05:43:26;1.47;;;1.17;;
44272;SDS011;29964;17.182;-96.766;2022-10-17T05:45:52;1.27;;;1.00;;
44272;SDS011;29964;17.182;-96.766;2022-10-17T05:48:20;1.60;;;0.90;;
44272;SDS011;29964;17.182;-96.766;2022-10-17T05:50:47;2.07;;;1.33;;
44272;SDS011;29964;17.182;-96.766;2022-10-17T05:53:14;2.60;;;1.93;;
44272;SDS011;29964;17.182;-96.766;2022-10-17T05:55:42;1.47;;;1.17;;
44272;SDS011;29964;17.182;-96.766;2022-10-17T05:58:10;3.07;;;1.63;;
44272;SDS011;29964;17.182;-96.766;2022-10-17T06:00:37;1.20;;;1.07;;
44272;SDS011;29964;17.182;-96.766;2022-10-17T06:03:04;2.27;;;1.23;;
44272;SDS011;29964;17.182;-96.766;2022-10-17T06:05:30;0.40;;;0.40;;
44272;SDS011;29964;17.182;-96.766;2022-10-17T06:07:57;2.67;;;1.07;;
44272;SDS011;29964;17.182;-96.766;2022-10-17T06:10:24;0.77;;;0.70;;
44272;SDS011;29964;17.182;-96.766;2022-10-17T06:12:50;0.97;;;0.87;;
44272;SDS011;29964;17.182;-96.766;2022-10-17T06:15:17;1.00;;;0.73;;
44272;SDS011;29964;17.182;-96.766;2022-10-17T06:17:44;1.23;;;0.77;;
44272;SDS011;29964;17.182;-96.766;2022-10-17T06:20:10;1.93;;;1.17;;
44272;SDS011;29964;17.182;-96.766;2022-10-17T06:22:37;2.53;;;1.23;;
44272;SDS011;29964;17.182;-96.766;2022-10-17T06:25:04;2.90;;;1.47;;
44272;SDS011;29964;17.182;-96.766;2022-10-17T06:27:31;3.43;;;0.97;;
44272;SDS011;29964;17.182;-96.766;2022-10-17T06:29:57;2.33;;;1.37;;
44272;SDS011;29964;17.182;-96.766;2022-10-17T06:32:24;2.70;;;1.50;;
44272;SDS011;29964;17.182;-96.766;2022-10-17T06:34:51;1.03;;;0.80;;
44272;SDS011;29964;17.182;-96.766;2022-10-17T06:37:18;1.67;;;1.10;;
44272;SDS011;29964;17.182;-96.766;2022-10-17T06:39:44;1.07;;;0.93;;
44272;SDS011;29964;17.182;-96.766;2022-10-17T06:42:11;0.90;;;0.60;;
44272;SDS011;29964;17.182;-96.766;2022-10-17T06:44:38;1.00;;;0.80;;
44272;SDS011;29964;17.182;-96.766;2022-10-17T06:47:05;0.97;;;0.63;;
44272;SDS011;29964;17.182;-96.766;2022-10-17T06:49:32;1.07;;;0.80;;
44272;SDS011;29964;17.182;-96.766;2022-10-17T06:51:58;0.83;;;0.60;;
44272;SDS011;29964;17.182;-96.766;2022-10-17T06:54:25;0.43;;;0.43;;
44272;SDS011;29964;17.182;-96.766;2022-10-17T06:56:52;1.17;;;1.00;;
44272;SDS011;29964;17.182;-96.766;2022-10-17T06:59:20;0.83;;;0.67;;
44272;SDS011;29964;17.182;-96.766;2022-10-17T07:01:47;0.57;;;0.50;;
44272;SDS011;29964;17.182;-96.766;2022-10-17T07:04:14;1.33;;;1.00;;
44272;SDS011;29964;17.182;-96.766;2022-10-17T07:06:40;1.80;;;1.10;;
44272;SDS011;29964;17.182;-96.766;2022-10-17T07:09:07;1.00;;;0.90;;
44272;SDS011;29964;17.182;-96.766;2022-10-17T07:11:34;0.63;;;0.53;;
44272;SDS011;29964;17.182;-96.766;2022-10-17T07:14:00;2.00;;;1.30;;
44272;SDS011;29964;17.182;-96.766;2022-10-17T07:16:27;0.90;;;0.70;;
44272;SDS011;29964;17.182;-96.766;2022-10-17T07:18:54;1.37;;;1.10;;
44272;SDS011;29964;17.182;-96.766;2022-10-17T07:21:21;8.77;;;1.37;;
44272;SDS011;29964;17.182;-96.766;2022-10-17T07:23:48;0.90;;;0.80;;
44272;SDS011;29964;17.182;-96.766;2022-10-17T07:26:15;0.87;;;0.57;;
44272;SDS011;29964;17.182;-96.766;2022-10-17T07:28:42;0.70;;;0.40;;
44272;SDS011;29964;17.182;-96.766;2022-10-17T07:31:10;2.97;;;0.97;;
44272;SDS011;29964;17.182;-96.766;2022-10-17T07:33:37;0.73;;;0.60;;
44272;SDS011;29964;17.182;-96.766;2022-10-17T07:36:04;0.80;;;0.60;;
44272;SDS011;29964;17.182;-96.766;2022-10-17T07:38:31;2.23;;;1.10;;
44272;SDS011;29964;17.182;-96.766;2022-10-17T07:40:59;1.97;;;1.33;;
44272;SDS011;29964;17.182;-96.766;2022-10-17T07:43:26;1.17;;;0.57;;
44272;SDS011;29964;17.182;-96.766;2022-10-17T07:45:53;0.67;;;0.60;;
44272;SDS011;29964;17.182;-96.766;2022-10-17T07:48:21;1.07;;;0.80;;
44272;SDS011;29964;17.182;-96.766;2022-10-17T07:50:47;1.80;;;1.17;;
44272;SDS011;29964;17.182;-96.766;2022-10-17T07:53:14;0.70;;;0.63;;
44272;SDS011;29964;17.182;-96.766;2022-10-17T07:55:41;1.07;;;0.90;;
44272;SDS011;29964;17.182;-96.766;2022-10-17T07:58:11;1.67;;;0.97;;
44272;SDS011;29964;17.182;-96.766;2022-10-17T08:00:38;5.17;;;1.03;;
44272;SDS011;29964;17.182;-96.766;2022-10-17T08:03:05;1.47;;;1.00;;
44272;SDS011;29964;17.182;-96.766;2022-10-17T08:05:32;0.60;;;0.50;;
44272;SDS011;29964;17.182;-96.766;2022-10-17T08:07:59;0.77;;;0.57;;
44272;SDS011;29964;17.182;-96.766;2022-10-17T08:10:25;0.70;;;0.53;;
44272;SDS011;29964;17.182;-96.766;2022-10-17T08:12:54;1.53;;;0.90;;
44272;SDS011;29964;17.182;-96.766;2022-10-17T08:15:21;2.10;;;1.20;;
44272;SDS011;29964;17.182;-96.766;2022-10-17T08:17:48;0.30;;;0.30;;
44272;SDS011;29964;17.182;-96.766;2022-10-17T08:20:15;2.03;;;1.17;;
44272;SDS011;29964;17.182;-96.766;2022-10-17T08:22:42;2.13;;;1.57;;
44272;SDS011;29964;17.182;-96.766;2022-10-17T08:25:08;1.33;;;1.10;;
44272;SDS011;29964;17.182;-96.766;2022-10-17T08:27:35;1.13;;;0.90;;
44272;SDS011;29964;17.182;-96.766;2022-10-17T08:30:02;1.50;;;0.90;;
44272;SDS011;29964;17.182;-96.766;2022-10-17T08:32:29;0.53;;;0.53;;
44272;SDS011;29964;17.182;-96.766;2022-10-17T08:34:55;0.73;;;0.60;;
44272;SDS011;29964;17.182;-96.766;2022-10-17T08:37:22;0.43;;;0.33;;
44272;SDS011;29964;17.182;-96.766;2022-10-17T08:39:49;0.63;;;0.50;;
44272;SDS011;29964;17.182;-96.766;2022-10-17T08:47:38;1.23;;;1.00;;
44272;SDS011;29964;17.182;-96.766;2022-10-17T08:50:08;4.22;;;1.27;;
44272;SDS011;29964;17.182;-96.766;2022-10-17T08:52:45;0.93;;;0.70;;
44272;SDS011;29964;17.182;-96.766;2022-10-17T08:55:17;1.53;;;1.13;;
44272;SDS011;29964;17.182;-96.766;2022-10-17T08:57:44;0.53;;;0.37;;
44272;SDS011;29964;17.182;-96.766;2022-10-17T09:00:18;2.60;;;1.27;;
44272;SDS011;29964;17.182;-96.766;2022-10-17T09:08:00;0.97;;;0.80;;
44272;SDS011;29964;17.182;-96.766;2022-10-17T09:10:37;0.40;;;0.30;;
44272;SDS011;29964;17.182;-96.766;2022-10-17T09:20:37;2.63;;;0.77;;
44272;SDS011;29964;17.182;-96.766;2022-10-17T09:23:14;0.67;;;0.43;;
44272;SDS011;29964;17.182;-96.766;2022-10-17T09:25:52;0.93;;;0.77;;
44272;SDS011;29964;17.182;-96.766;2022-10-17T09:28:24;0.70;;;0.53;;
44272;SDS011;29964;17.182;-96.766;2022-10-17T09:31:03;1.27;;;0.98;;
44272;SDS011;29964;17.182;-96.766;2022-10-17T09:35:57;1.67;;;1.07;;
44272;SDS011;29964;17.182;-96.766;2022-10-17T09:38:25;1.03;;;0.73;;
44272;SDS011;29964;17.182;-96.766;2022-10-17T09:40:55;1.43;;;0.90;;
44272;SDS011;29964;17.182;-96.766;2022-10-17T09:43:22;1.67;;;0.93;;
44272;SDS011;29964;17.182;-96.766;2022-10-17T09:46:01;3.47;;;1.37;;
44272;SDS011;29964;17.182;-96.766;2022-10-17T09:48:33;1.07;;;0.80;;
44272;SDS011;29964;17.182;-96.766;2022-10-17T09:51:01;0.70;;;0.60;;
44272;SDS011;29964;17.182;-96.766;2022-10-17T09:53:30;1.77;;;0.87;;
44272;SDS011;29964;17.182;-96.766;2022-10-17T09:56:00;2.20;;;0.80;;
44272;SDS011;29964;17.182;-96.766;2022-10-17T09:58:47;1.13;;;0.90;;
44272;SDS011;29964;17.182;-96.766;2022-10-17T10:01:21;1.90;;;1.30;;
44272;SDS011;29964;17.182;-96.766;2022-10-17T10:03:48;0.50;;;0.50;;
44272;SDS011;29964;17.182;-96.766;2022-10-17T10:06:33;1.33;;;0.93;;
44272;SDS011;29964;17.182;-96.766;2022-10-17T10:09:00;3.07;;;1.40;;
44272;SDS011;29964;17.182;-96.766;2022-10-17T10:11:43;1.50;;;1.07;;
44272;SDS011;29964;17.182;-96.766;2022-10-17T10:14:11;2.20;;;0.90;;
44272;SDS011;29964;17.182;-96.766;2022-10-17T10:16:42;0.93;;;0.77;;
44272;SDS011;29964;17.182;-96.766;2022-10-17T10:19:26;2.03;;;1.47;;
44272;SDS011;29964;17.182;-96.766;2022-10-17T10:22:01;1.00;;;0.90;;
44272;SDS011;29964;17.182;-96.766;2022-10-17T10:24:28;2.67;;;1.47;;
44272;SDS011;29964;17.182;-96.766;2022-10-17T10:26:56;1.20;;;0.97;;
44272;SDS011;29964;17.182;-96.766;2022-10-17T10:31:51;1.63;;;0.90;;
44272;SDS011;29964;17.182;-96.766;2022-10-17T10:34:20;0.77;;;0.73;;
44272;SDS011;29964;17.182;-96.766;2022-10-17T10:36:49;1.07;;;0.77;;
44272;SDS011;29964;17.182;-96.766;2022-10-17T10:39:24;1.23;;;0.83;;
44272;SDS011;29964;17.182;-96.766;2022-10-17T10:44:17;1.60;;;1.43;;
44272;SDS011;29964;17.182;-96.766;2022-10-17T10:46:46;1.60;;;1.00;;
44272;SDS011;29964;17.182;-96.766;2022-10-17T10:49:28;4.87;;;1.93;;
44272;SDS011;29964;17.182;-96.766;2022-10-17T10:51:55;1.13;;;0.90;;
44272;SDS011;29964;17.182;-96.766;2022-10-17T10:54:33;2.40;;;1.30;;
44272;SDS011;29964;17.182;-96.766;2022-10-17T10:57:03;1.27;;;0.90;;
44272;SDS011;29964;17.182;-96.766;2022-10-17T11:02:02;1.13;;;0.70;;
44272;SDS011;29964;17.182;-96.766;2022-10-17T11:04:31;1.73;;;1.37;;
44272;SDS011;29964;17.182;-96.766;2022-10-17T11:07:04;1.47;;;0.97;;
44272;SDS011;29964;17.182;-96.766;2022-10-17T11:12:19;1.67;;;1.13;;
44272;SDS011;29964;17.182;-96.766;2022-10-17T11:15:33;5.83;;;0.90;;
44272;SDS011;29964;17.182;-96.766;2022-10-17T11:17:35;1.37;;;1.10;;
44272;SDS011;29964;17.182;-96.766;2022-10-17T11:22:49;2.75;;;1.48;;
44272;SDS011;29964;17.182;-96.766;2022-10-17T11:25:34;1.50;;;1.00;;
44272;SDS011;29964;17.182;-96.766;2022-10-17T11:28:02;0.90;;;0.60;;
44272;SDS011;29964;17.182;-96.766;2022-10-17T11:30:32;0.90;;;0.77;;
44272;SDS011;29964;17.182;-96.766;2022-10-17T11:33:01;2.87;;;1.50;;
44272;SDS011;29964;17.182;-96.766;2022-10-17T11:35:29;1.33;;;0.93;;
44272;SDS011;29964;17.182;-96.766;2022-10-17T11:38:13;1.17;;;0.80;;
44272;SDS011;29964;17.182;-96.766;2022-10-17T11:40:43;1.13;;;0.93;;
44272;SDS011;29964;17.182;-96.766;2022-10-17T11:43:14;1.63;;;1.20;;
44272;SDS011;29964;17.182;-96.766;2022-10-17T11:45:48;1.90;;;1.20;;
44272;SDS011;29964;17.182;-96.766;2022-10-17T11:48:21;0.77;;;0.73;;
44272;SDS011;29964;17.182;-96.766;2022-10-17T11:50:50;1.80;;;1.20;;
44272;SDS011;29964;17.182;-96.766;2022-10-17T11:53:21;2.10;;;0.90;;
44272;SDS011;29964;17.182;-96.766;2022-10-17T11:55:48;5.67;;;0.87;;
44272;SDS011;29964;17.182;-96.766;2022-10-17T11:58:36;5.70;;;1.10;;
44272;SDS011;29964;17.182;-96.766;2022-10-17T12:01:23;1.43;;;0.90;;
44272;SDS011;29964;17.182;-96.766;2022-10-17T12:06:47;2.35;;;1.10;;
44272;SDS011;29964;17.182;-96.766;2022-10-17T12:14:34;1.00;;;0.70;;
44272;SDS011;29964;17.182;-96.766;2022-10-17T12:17:02;1.50;;;1.10;;
44272;SDS011;29964;17.182;-96.766;2022-10-17T12:19:33;2.50;;;1.10;;
44272;SDS011;29964;17.182;-96.766;2022-10-17T12:22:05;1.57;;;1.13;;
44272;SDS011;29964;17.182;-96.766;2022-10-17T12:27:30;0.73;;;0.73;;
44272;SDS011;29964;17.182;-96.766;2022-10-17T12:32:23;0.37;;;0.33;;
44272;SDS011;29964;17.182;-96.766;2022-10-17T12:34:53;1.67;;;1.13;;
44272;SDS011;29964;17.182;-96.766;2022-10-17T12:40:53;1.52;;;1.05;;
44272;SDS011;29964;17.182;-96.766;2022-10-17T12:42:53;2.00;;;1.33;;
44272;SDS011;29964;17.182;-96.766;2022-10-17T12:51:14;2.08;;;0.75;;
44272;SDS011;29964;17.182;-96.766;2022-10-17T12:56:15;7.23;;;1.60;;
44272;SDS011;29964;17.182;-96.766;2022-10-17T12:58:44;1.67;;;1.13;;
44272;SDS011;29964;17.182;-96.766;2022-10-17T13:01:18;6.30;;;2.23;;
44272;SDS011;29964;17.182;-96.766;2022-10-17T13:03:48;1.03;;;0.90;;
44272;SDS011;29964;17.182;-96.766;2022-10-17T13:06:24;1.03;;;0.87;;
44272;SDS011;29964;17.182;-96.766;2022-10-17T13:08:59;2.63;;;1.17;;
44272;SDS011;29964;17.182;-96.766;2022-10-17T13:11:27;15.10;;;2.63;;
44272;SDS011;29964;17.182;-96.766;2022-10-17T13:13:55;7.83;;;1.40;;
44272;SDS011;29964;17.182;-96.766;2022-10-17T13:18:55;7.20;;;1.47;;
44272;SDS011;29964;17.182;-96.766;2022-10-17T13:21:22;4.17;;;2.20;;
44272;SDS011;29964;17.182;-96.766;2022-10-17T13:23:49;3.53;;;2.00;;
44272;SDS011;29964;17.182;-96.766;2022-10-17T13:26:24;2.77;;;1.60;;
44272;SDS011;29964;17.182;-96.766;2022-10-17T13:29:05;1.77;;;1.38;;
44272;SDS011;29964;17.182;-96.766;2022-10-17T13:31:36;2.77;;;1.77;;
44272;SDS011;29964;17.182;-96.766;2022-10-17T13:34:04;2.30;;;1.80;;
44272;SDS011;29964;17.182;-96.766;2022-10-17T13:36:31;5.67;;;3.50;;
44272;SDS011;29964;17.182;-96.766;2022-10-17T13:39:04;1.37;;;1.23;;
44272;SDS011;29964;17.182;-96.766;2022-10-17T13:41:31;3.93;;;1.77;;
44272;SDS011;29964;17.182;-96.766;2022-10-17T13:43:59;4.67;;;2.60;;
44272;SDS011;29964;17.182;-96.766;2022-10-17T13:46:30;4.50;;;2.60;;
44272;SDS011;29964;17.182;-96.766;2022-10-17T13:48:57;6.47;;;2.67;;
44272;SDS011;29964;17.182;-96.766;2022-10-17T13:51:25;2.93;;;2.30;;
44272;SDS011;29964;17.182;-96.766;2022-10-17T13:53:52;5.57;;;2.57;;
44272;SDS011;29964;17.182;-96.766;2022-10-17T13:56:23;6.33;;;2.40;;
44272;SDS011;29964;17.182;-96.766;2022-10-17T13:58:51;2.83;;;1.97;;
44272;SDS011;29964;17.182;-96.766;2022-10-17T14:01:20;5.53;;;2.57;;
44272;SDS011;29964;17.182;-96.766;2022-10-17T14:03:47;10.00;;;2.77;;
44272;SDS011;29964;17.182;-96.766;2022-10-17T14:06:17;4.80;;;2.27;;
44272;SDS011;29964;17.182;-96.766;2022-10-17T14:08:46;3.40;;;2.40;;
44272;SDS011;29964;17.182;-96.766;2022-10-17T14:11:23;4.43;;;2.60;;
44272;SDS011;29964;17.182;-96.766;2022-10-17T14:13:51;4.43;;;1.87;;
44272;SDS011;29964;17.182;-96.766;2022-10-17T14:16:19;4.10;;;3.20;;
44272;SDS011;29964;17.182;-96.766;2022-10-17T14:18:47;3.17;;;1.97;;
44272;SDS011;29964;17.182;-96.766;2022-10-17T14:21:17;3.03;;;2.17;;
44272;SDS011;29964;17.182;-96.766;2022-10-17T14:23:44;4.17;;;2.23;;
44272;SDS011;29964;17.182;-96.766;2022-10-17T14:26:18;7.73;;;1.53;;
44272;SDS011;29964;17.182;-96.766;2022-10-17T14:28:47;3.72;;;2.25;;
44272;SDS011;29964;17.182;-96.766;2022-10-17T14:33:47;3.63;;;2.73;;
44272;SDS011;29964;17.182;-96.766;2022-10-17T14:36:14;4.40;;;2.30;;
44272;SDS011;29964;17.182;-96.766;2022-10-17T14:38:48;4.43;;;2.67;;
44272;SDS011;29964;17.182;-96.766;2022-10-17T14:41:25;13.00;;;4.40;;
44272;SDS011;29964;17.182;-96.766;2022-10-17T14:43:55;6.27;;;3.93;;
44272;SDS011;29964;17.182;-96.766;2022-10-17T14:46:22;2.90;;;2.00;;
44272;SDS011;29964;17.182;-96.766;2022-10-17T14:49:03;5.53;;;3.37;;
44272;SDS011;29964;17.182;-96.766;2022-10-17T14:51:30;5.20;;;3.33;;
44272;SDS011;29964;17.182;-96.766;2022-10-17T14:56:33;2.90;;;2.37;;
44272;SDS011;29964;17.182;-96.766;2022-10-17T14:59:00;4.77;;;3.13;;
44272;SDS011;29964;17.182;-96.766;2022-10-17T15:01:27;3.70;;;2.63;;
44272;SDS011;29964;17.182;-96.766;2022-10-17T15:03:54;3.30;;;2.40;;
44272;SDS011;29964;17.182;-96.766;2022-10-17T15:06:26;4.30;;;2.83;;
44272;SDS011;29964;17.182;-96.766;2022-10-17T15:08:53;5.43;;;1.97;;
44272;SDS011;29964;17.182;-96.766;2022-10-17T15:11:20;1.97;;;1.53;;
44272;SDS011;29964;17.182;-96.766;2022-10-17T15:13:46;1.67;;;1.30;;
44272;SDS011;29964;17.182;-96.766;2022-10-17T15:16:21;2.57;;;2.07;;
44272;SDS011;29964;17.182;-96.766;2022-10-17T15:18:48;4.55;;;3.00;;
44272;SDS011;29964;17.182;-96.766;2022-10-17T15:21:15;4.37;;;2.33;;
44272;SDS011;29964;17.182;-96.766;2022-10-17T15:23:42;2.97;;;2.13;;
44272;SDS011;29964;17.182;-96.766;2022-10-17T15:26:16;3.27;;;1.80;;
44272;SDS011;29964;17.182;-96.766;2022-10-17T15:28:43;3.42;;;1.85;;
44272;SDS011;29964;17.182;-96.766;2022-10-17T15:31:14;3.07;;;1.80;;
44272;SDS011;29964;17.182;-96.766;2022-10-17T15:33:41;1.37;;;1.10;;
44272;SDS011;29964;17.182;-96.766;2022-10-17T15:36:27;3.43;;;1.80;;
44272;SDS011;29964;17.182;-96.766;2022-10-17T15:38:55;3.57;;;2.03;;
44272;SDS011;29964;17.182;-96.766;2022-10-17T15:41:26;1.90;;;1.33;;
44272;SDS011;29964;17.182;-96.766;2022-10-17T15:43:53;4.97;;;2.00;;
44272;SDS011;29964;17.182;-96.766;2022-10-17T15:46:23;3.73;;;2.30;;
44272;SDS011;29964;17.182;-96.766;2022-10-17T15:48:51;3.93;;;1.63;;
44272;SDS011;29964;17.182;-96.766;2022-10-17T15:51:18;18.60;;;2.80;;
44272;SDS011;29964;17.182;-96.766;2022-10-17T15:53:45;2.20;;;1.57;;
44272;SDS011;29964;17.182;-96.766;2022-10-17T15:56:25;2.60;;;1.70;;
44272;SDS011;29964;17.182;-96.766;2022-10-17T15:58:52;3.00;;;2.10;;
44272;SDS011;29964;17.182;-96.766;2022-10-17T16:01:20;8.63;;;3.00;;
44272;SDS011;29964;17.182;-96.766;2022-10-17T16:03:47;5.63;;;3.07;;
44272;SDS011;29964;17.182;-96.766;2022-10-17T16:06:15;24.33;;;2.90;;
44272;SDS011;29964;17.182;-96.766;2022-10-17T16:08:43;9.70;;;3.17;;
44272;SDS011;29964;17.182;-96.766;2022-10-17T16:11:55;3.37;;;2.27;;